This is the latest recevied weather packets stored in our database for station/object KF7U. If no packets are shown the sender has not sent any weather packets the latest 10 day(s).
| Time | Temp. | Humidity | Pressure | Rain* | Wind** | Luminosity | Snow |
|---|---|---|---|---|---|---|---|
| 1778018854 | 23.89° C | 32% | 1008.5 hPa | 0 mm | - | 942 W/m² | - |
| 1778018554 | 23.89° C | 32% | 1008.5 hPa | 0 mm | - | 335 W/m² | - |
| 1778018255 | 23.89° C | 34% | 1008.5 hPa | 0 mm | - | 358 W/m² | - |
| 1778017955 | 23.89° C | 32% | 1008.8 hPa | 0 mm | - | 300 W/m² | - |
| 1778017655 | 25° C | 31% | 1008.5 hPa | 0 mm | - | 334 W/m² | - |
| 1778017355 | 24.44° C | 33% | 1008.5 hPa | 0 mm | - | 987 W/m² | - |
| 1778017054 | 23.33° C | 37% | 1008.8 hPa | 0 mm | - | - | - |
| 1778016755 | 23.33° C | 35% | 1008.8 hPa | 0 mm | - | 297 W/m² | - |
| 1778016454 | 23.89° C | 35% | 1008.8 hPa | 0 mm | - | 261 W/m² | - |
| 1778016155 | 23.89° C | 35% | 1008.8 hPa | 0 mm | - | 998 W/m² | - |
| 1778015855 | 24.44° C | 35% | 1009.1 hPa | 0 mm | - | - | - |
| 1778015554 | 23.89° C | 37% | 1009.1 hPa | 0 mm | - | 360 W/m² | - |
| 1778015254 | 23.89° C | 36% | 1009.1 hPa | 0 mm | - | 813 W/m² | - |
| 1778014957 | 23.33° C | 41% | 1009.5 hPa | 0 mm | - | 1067 W/m² | - |
| 1778014654 | 22.78° C | 43% | 1009.5 hPa | 0 mm | - | 237 W/m² | - |
| 1778014355 | 23.33° C | 38% | 1009.5 hPa | 0 mm | - | 189 W/m² | - |
| 1778014055 | 23.89° C | 38% | 1009.1 hPa | 0 mm | - | 255 W/m² | - |
| 1778013755 | 23.89° C | 38% | 1009.5 hPa | 0 mm | - | 425 W/m² | - |
| 1778013455 | 23.89° C | 39% | 1009.5 hPa | 0 mm | - | 1173 W/m² | - |
| 1778013155 | 24.44° C | 38% | 1009.5 hPa | 0 mm | - | 339 W/m² | - |
| 1778012855 | 25° C | 36% | 1009.5 hPa | 0 mm | - | 416 W/m² | - |
| 1778012555 | 25° C | 37% | 1009.5 hPa | 0 mm | - | 1128 W/m² | - |
| 1778012255 | 25° C | 37% | 1009.5 hPa | 0 mm | - | 1196 W/m² | - |
| 1778011957 | 25° C | 37% | 1009.5 hPa | 0 mm | - | 436 W/m² | - |
| 1778011655 | 25° C | 39% | 1009.8 hPa | 0 mm | - | 1159 W/m² | - |
* Rain latest hour (hover to see other rain measurements)
** Current wind speed in m/s (hover to see current wind gust speed)